createdAt,value
2022-10-17T00:01:33.690Z,12.20
2022-10-17T00:04:22.518Z,12.10
2022-10-17T00:07:10.006Z,12.10
2022-10-17T00:09:57.520Z,12.10
2022-10-17T00:12:45.096Z,12.00
2022-10-17T00:15:32.936Z,12.10
2022-10-17T00:18:21.081Z,12.20
2022-10-17T00:21:18.044Z,12.30
2022-10-17T00:24:06.031Z,12.30
2022-10-17T00:26:53.494Z,12.50
2022-10-17T00:29:40.984Z,12.50
2022-10-17T00:32:28.724Z,12.60
2022-10-17T00:35:16.748Z,12.80
2022-10-17T00:38:04.185Z,13.00
2022-10-17T00:40:51.712Z,13.10
2022-10-17T00:43:59.298Z,13.20
2022-10-17T00:46:46.735Z,13.30
2022-10-17T00:49:38.722Z,13.30
2022-10-17T00:52:30.727Z,13.30
2022-10-17T00:55:29.725Z,13.30
2022-10-17T00:58:19.045Z,13.30
2022-10-17T01:01:06.577Z,13.30
2022-10-17T01:03:54.009Z,13.30
2022-10-17T01:06:41.461Z,13.20
2022-10-17T01:09:29.134Z,13.20
2022-10-17T01:12:19.332Z,13.10
2022-10-17T01:15:27.774Z,13.00
2022-10-17T01:18:35.570Z,12.90
2022-10-17T01:21:33.580Z,12.80
2022-10-17T01:25:18.290Z,12.70
2022-10-17T01:28:39.398Z,12.70
2022-10-17T01:31:44.783Z,12.70
2022-10-17T01:34:57.979Z,12.70
2022-10-17T01:38:10.539Z,12.50
2022-10-17T01:41:07.085Z,12.40
2022-10-17T01:44:11.689Z,12.30
2022-10-17T01:47:10.314Z,12.20
2022-10-17T01:50:08.804Z,12.10
2022-10-17T01:53:12.399Z,11.90
2022-10-17T01:56:06.214Z,11.80
2022-10-17T01:59:02.954Z,11.80
2022-10-17T02:01:55.605Z,11.80
2022-10-17T02:04:43.945Z,11.80
2022-10-17T02:07:31.533Z,11.80
2022-10-17T02:10:42.404Z,11.70
2022-10-17T02:13:51.473Z,11.50
2022-10-17T02:17:02.980Z,11.40
2022-10-17T02:20:19.974Z,11.30
2022-10-17T02:23:36.660Z,11.20
2022-10-17T02:26:40.977Z,11.10
2022-10-17T02:29:42.568Z,11.00
2022-10-17T02:32:50.499Z,11.00
2022-10-17T02:35:45.319Z,10.90
2022-10-17T02:38:34.834Z,10.90
2022-10-17T02:41:24.568Z,11.00
2022-10-17T02:44:12.530Z,11.20
2022-10-17T02:47:21.884Z,11.40
2022-10-17T02:50:10.090Z,11.60
2022-10-17T02:53:15.875Z,11.80
2022-10-17T02:56:15.890Z,12.00
2022-10-17T02:59:05.435Z,12.10
2022-10-17T03:01:53.512Z,12.20
2022-10-17T03:04:46.175Z,12.20
2022-10-17T03:07:33.625Z,12.20
2022-10-17T03:10:23.064Z,12.20
2022-10-17T03:13:10.994Z,12.10
2022-10-17T03:15:58.494Z,12.00
2022-10-17T03:18:49.298Z,11.80
2022-10-17T03:21:38.319Z,11.70
2022-10-17T03:24:25.862Z,11.60
2022-10-17T03:27:13.465Z,11.60
2022-10-17T03:30:00.989Z,11.60
2022-10-17T03:32:48.440Z,11.40
2022-10-17T03:35:40.545Z,11.30
2022-10-17T03:38:27.985Z,11.10
2022-10-17T03:41:15.760Z,11.00
2022-10-17T03:44:03.549Z,10.90
2022-10-17T03:46:51.050Z,10.80
2022-10-17T03:49:38.555Z,10.70
2022-10-17T03:52:26.000Z,10.60
2022-10-17T03:55:13.434Z,10.60
2022-10-17T03:58:00.860Z,10.60
2022-10-17T04:00:48.804Z,10.70
2022-10-17T04:03:36.669Z,10.70
2022-10-17T04:06:24.320Z,10.70
2022-10-17T04:09:11.901Z,10.80
2022-10-17T04:11:59.439Z,10.90
2022-10-17T04:14:46.855Z,10.90
2022-10-17T04:17:37.328Z,11.00
2022-10-17T04:20:25.850Z,11.20
2022-10-17T04:23:13.322Z,11.40
2022-10-17T04:26:03.489Z,11.50
2022-10-17T04:28:51.672Z,11.50
2022-10-17T04:31:39.110Z,11.60
2022-10-17T04:34:26.540Z,11.70
2022-10-17T04:37:13.970Z,11.70
2022-10-17T04:40:01.446Z,11.80
2022-10-17T04:42:48.881Z,12.00
2022-10-17T04:45:36.294Z,12.20
2022-10-17T04:48:23.799Z,12.30
2022-10-17T04:51:20.618Z,12.30
2022-10-17T04:54:11.068Z,12.40
2022-10-17T04:56:58.486Z,12.40
2022-10-17T04:59:46.431Z,12.40
2022-10-17T05:02:33.886Z,12.50
2022-10-17T05:05:21.401Z,12.50
2022-10-17T05:08:11.147Z,12.50
2022-10-17T05:14:02.685Z,12.40
2022-10-17T05:16:50.127Z,12.50
2022-10-17T05:19:37.634Z,12.50
2022-10-17T05:22:25.170Z,12.50
2022-10-17T05:25:12.629Z,12.40
2022-10-17T05:28:00.149Z,12.40
2022-10-17T05:30:47.661Z,12.40
2022-10-17T05:33:36.454Z,12.40
2022-10-17T05:36:23.894Z,12.40
2022-10-17T05:39:14.923Z,12.40
2022-10-17T05:42:02.430Z,12.40
2022-10-17T05:44:49.895Z,12.40
2022-10-17T05:47:37.403Z,12.40
2022-10-17T05:50:25.334Z,12.30
2022-10-17T05:53:13.126Z,12.40
2022-10-17T05:56:03.679Z,12.40
2022-10-17T05:58:54.073Z,12.40
2022-10-17T06:01:42.991Z,12.40
2022-10-17T06:04:30.427Z,12.50
2022-10-17T06:07:17.865Z,12.50
2022-10-17T06:10:06.439Z,12.60
2022-10-17T06:12:53.916Z,12.60
2022-10-17T06:15:41.380Z,12.60
2022-10-17T06:18:29.375Z,12.70
2022-10-17T06:21:23.740Z,12.70
2022-10-17T06:24:11.280Z,12.80
2022-10-17T06:26:59.090Z,12.80
2022-10-17T06:29:48.455Z,12.80
2022-10-17T06:32:35.896Z,12.80
2022-10-17T06:35:23.410Z,12.80
2022-10-17T06:38:10.845Z,12.90
2022-10-17T06:41:19.445Z,12.90
2022-10-17T06:44:11.441Z,12.90
2022-10-17T06:47:00.840Z,12.90
2022-10-17T06:49:48.300Z,13.00
2022-10-17T06:52:35.739Z,13.00
2022-10-17T06:55:23.445Z,13.00
2022-10-17T06:58:11.100Z,13.00
2022-10-17T07:01:11.756Z,13.00
2022-10-17T07:03:59.269Z,13.10
2022-10-17T07:06:46.815Z,13.10
2022-10-17T07:09:34.479Z,13.20
2022-10-17T07:12:21.940Z,13.20
2022-10-17T07:15:10.148Z,13.20
2022-10-17T07:17:57.560Z,13.10
2022-10-17T07:20:53.834Z,13.20
2022-10-17T07:23:41.720Z,13.20
2022-10-17T07:26:29.245Z,13.20
2022-10-17T07:29:16.755Z,13.20
2022-10-17T07:32:06.595Z,13.20
2022-10-17T07:34:54.264Z,13.20
2022-10-17T07:37:42.051Z,13.20
2022-10-17T07:40:29.526Z,13.30
2022-10-17T07:43:16.970Z,13.30
2022-10-17T07:46:06.019Z,13.30
2022-10-17T07:48:53.469Z,13.30
2022-10-17T07:51:41.074Z,13.20
2022-10-17T07:54:28.585Z,13.30
2022-10-17T07:57:15.989Z,13.30
2022-10-17T08:00:03.770Z,13.30
2022-10-17T08:02:51.202Z,13.20
2022-10-17T08:05:38.640Z,13.20
2022-10-17T08:08:27.451Z,13.30
2022-10-17T08:11:16.453Z,13.40
2022-10-17T08:14:04.076Z,13.40
2022-10-17T08:16:51.525Z,13.40
2022-10-17T08:19:40.559Z,13.30
2022-10-17T08:22:28.397Z,13.50
2022-10-17T08:25:16.100Z,13.30
2022-10-17T08:28:03.603Z,13.30
2022-10-17T08:30:51.040Z,13.30
2022-10-17T08:33:39.195Z,13.40
2022-10-17T08:36:28.724Z,13.50
2022-10-17T08:39:16.140Z,13.60
2022-10-17T08:42:31.080Z,13.70
2022-10-17T08:46:09.126Z,13.70
2022-10-17T08:49:02.346Z,13.80
2022-10-17T08:51:59.455Z,13.80
2022-10-17T08:54:49.020Z,13.90
2022-10-17T08:57:36.596Z,14.00
2022-10-17T09:00:25.454Z,14.10
2022-10-17T09:03:34.868Z,14.10
2022-10-17T09:06:47.181Z,14.20
2022-10-17T09:10:17.271Z,14.20
2022-10-17T09:13:16.924Z,14.20
2022-10-17T09:16:54.900Z,14.30
2022-10-17T09:19:51.452Z,14.40
2022-10-17T09:25:56.105Z,14.60
2022-10-17T09:28:56.457Z,14.60
2022-10-17T09:32:02.741Z,14.70
2022-10-17T09:34:51.335Z,14.80
2022-10-17T09:37:39.170Z,14.80
2022-10-17T09:40:36.860Z,14.90
2022-10-17T09:43:25.251Z,14.90
2022-10-17T09:46:26.442Z,14.90
2022-10-17T09:49:26.109Z,14.90
2022-10-17T09:52:25.050Z,14.90
2022-10-17T09:55:18.727Z,14.90
2022-10-17T09:58:08.706Z,14.90
2022-10-17T10:01:25.622Z,15.00
2022-10-17T10:04:16.716Z,15.00
2022-10-17T10:07:11.374Z,15.10
2022-10-17T10:10:01.036Z,14.90
2022-10-17T10:13:13.126Z,14.60
2022-10-17T10:16:30.821Z,14.50
2022-10-17T10:19:35.500Z,14.50
2022-10-17T10:22:23.926Z,14.60
2022-10-17T10:25:11.331Z,14.80
2022-10-17T10:28:00.818Z,15.10
2022-10-17T10:30:52.499Z,15.40
2022-10-17T10:33:47.027Z,15.70
2022-10-17T10:37:37.303Z,15.90
2022-10-17T10:40:52.820Z,16.00
2022-10-17T10:43:48.720Z,16.10
2022-10-17T10:46:36.599Z,16.10
2022-10-17T10:49:32.960Z,16.30
2022-10-17T10:53:09.530Z,16.50
2022-10-17T10:56:23.544Z,16.70
2022-10-17T10:59:53.883Z,16.80
2022-10-17T11:02:55.100Z,16.80
2022-10-17T11:06:17.153Z,17.00
2022-10-17T11:09:45.027Z,17.10
2022-10-17T11:15:55.361Z,17.20
2022-10-17T11:19:15.107Z,17.20
2022-10-17T11:22:44.350Z,17.20
2022-10-17T11:25:38.985Z,17.20
2022-10-17T11:28:26.787Z,17.40
2022-10-17T11:31:17.451Z,17.40
2022-10-17T11:34:20.242Z,17.40
2022-10-17T11:37:20.667Z,17.40
2022-10-17T11:40:33.895Z,17.50
2022-10-17T11:43:27.570Z,17.50
2022-10-17T11:46:26.941Z,17.50
2022-10-17T11:49:25.017Z,17.50
2022-10-17T11:52:55.314Z,17.50
2022-10-17T11:55:46.730Z,17.30
2022-10-17T11:59:02.112Z,17.40
2022-10-17T12:02:01.031Z,17.60
2022-10-17T12:05:17.625Z,17.70
2022-10-17T12:09:04.935Z,17.80
2022-10-17T12:12:04.141Z,17.90
2022-10-17T12:14:51.932Z,18.00
2022-10-17T12:17:54.525Z,17.90
2022-10-17T12:20:41.980Z,17.90
2022-10-17T12:23:33.349Z,17.80
2022-10-17T12:26:29.870Z,17.80
2022-10-17T12:29:29.997Z,17.80
2022-10-17T12:32:17.591Z,17.90
2022-10-17T12:35:05.772Z,17.80
2022-10-17T12:37:57.315Z,17.90
2022-10-17T12:40:50.626Z,18.00
2022-10-17T12:43:44.794Z,18.10
2022-10-17T12:46:49.620Z,18.30
2022-10-17T12:49:43.486Z,18.20
2022-10-17T12:52:35.273Z,18.20
2022-10-17T12:55:26.787Z,18.10
2022-10-17T12:58:17.099Z,18.20
2022-10-17T13:01:23.276Z,18.20
2022-10-17T13:04:12.577Z,18.30
2022-10-17T13:07:01.416Z,18.40
2022-10-17T13:09:51.459Z,18.40
2022-10-17T13:12:41.350Z,18.40
2022-10-17T13:15:29.655Z,18.40
2022-10-17T13:18:28.050Z,18.50
2022-10-17T13:21:16.735Z,18.40
2022-10-17T13:24:54.234Z,18.50
2022-10-17T13:27:43.103Z,18.60
2022-10-17T13:30:36.695Z,18.60
2022-10-17T13:33:44.402Z,18.50
2022-10-17T13:36:35.139Z,18.60
2022-10-17T13:39:45.586Z,18.70
2022-10-17T13:42:41.545Z,18.80
2022-10-17T13:45:37.021Z,18.80
2022-10-17T13:48:28.341Z,18.80
2022-10-17T13:51:15.885Z,18.70
2022-10-17T13:54:24.325Z,18.70
2022-10-17T13:57:29.503Z,18.70
2022-10-17T14:00:23.215Z,18.80
2022-10-17T14:03:11.470Z,18.60
2022-10-17T14:06:18.567Z,18.50
2022-10-17T14:09:20.214Z,18.50
2022-10-17T14:12:12.905Z,18.50
2022-10-17T14:15:12.415Z,18.60
2022-10-17T14:18:07.970Z,18.60
2022-10-17T14:24:23.775Z,18.70
2022-10-17T14:27:29.753Z,18.60
2022-10-17T14:30:58.126Z,18.60
2022-10-17T14:33:51.157Z,18.50
2022-10-17T14:36:42.861Z,18.50
2022-10-17T14:39:30.490Z,18.60
2022-10-17T14:42:23.673Z,18.60
2022-10-17T14:45:39.215Z,18.60
2022-10-17T14:48:29.420Z,18.50
2022-10-17T14:51:19.205Z,18.40
2022-10-17T14:54:29.951Z,18.30
2022-10-17T14:57:35.030Z,18.30
2022-10-17T15:00:24.284Z,18.20
2022-10-17T15:03:11.854Z,18.10
2022-10-17T15:06:24.754Z,18.10
2022-10-17T15:09:12.639Z,18.10
2022-10-17T15:12:07.997Z,18.00
2022-10-17T15:14:55.499Z,17.90
2022-10-17T15:20:32.440Z,17.80
2022-10-17T15:23:20.832Z,17.70
2022-10-17T15:26:16.989Z,17.60
2022-10-17T15:29:05.128Z,17.50
2022-10-17T15:31:52.745Z,17.40
2022-10-17T15:34:40.870Z,17.40
2022-10-17T15:37:34.526Z,17.30
2022-10-17T15:40:30.445Z,17.20
2022-10-17T15:43:19.827Z,17.10
2022-10-17T15:46:25.346Z,17.00
2022-10-17T15:49:17.279Z,16.80
2022-10-17T15:52:05.857Z,16.80
2022-10-17T15:54:54.598Z,16.70
2022-10-17T15:57:45.196Z,16.50
2022-10-17T16:00:32.685Z,16.50
2022-10-17T16:03:23.122Z,16.30
2022-10-17T16:06:13.498Z,16.10
2022-10-17T16:09:01.764Z,16.00
2022-10-17T16:11:49.199Z,15.80
2022-10-17T16:14:37.029Z,15.70
2022-10-17T16:17:24.535Z,15.60
2022-10-17T16:20:13.587Z,15.40
2022-10-17T16:23:03.120Z,15.30
2022-10-17T16:25:51.784Z,15.20
2022-10-17T16:28:42.414Z,15.00
2022-10-17T16:31:42.334Z,14.90
2022-10-17T16:34:30.919Z,14.80
2022-10-17T16:37:18.964Z,14.70
2022-10-17T16:40:07.026Z,14.60
2022-10-17T16:42:54.484Z,14.50
2022-10-17T16:45:42.049Z,14.40
2022-10-17T16:48:29.868Z,14.40
2022-10-17T16:51:20.341Z,14.30
2022-10-17T16:54:09.845Z,14.20
2022-10-17T16:57:00.435Z,14.10
2022-10-17T16:59:47.903Z,14.00
2022-10-17T17:02:35.428Z,14.00
2022-10-17T17:05:23.105Z,14.00
2022-10-17T17:08:12.565Z,13.90
2022-10-17T17:11:00.774Z,13.80
2022-10-17T17:13:49.074Z,13.80
2022-10-17T17:16:36.574Z,13.70
2022-10-17T17:19:24.221Z,13.70
2022-10-17T17:22:11.744Z,13.70
2022-10-17T17:24:59.194Z,13.60
2022-10-17T17:27:46.640Z,13.40
2022-10-17T17:30:34.984Z,13.40
2022-10-17T17:33:24.654Z,13.30
2022-10-17T17:36:20.910Z,13.30
2022-10-17T17:39:12.440Z,13.20
2022-10-17T17:41:59.884Z,13.20
2022-10-17T17:44:48.609Z,13.20
2022-10-17T17:47:36.049Z,13.20
2022-10-17T17:50:23.470Z,13.10
2022-10-17T17:53:14.070Z,13.10
2022-10-17T17:56:08.224Z,13.10
2022-10-17T17:59:02.234Z,13.10
2022-10-17T18:01:49.828Z,13.10
2022-10-17T18:04:37.336Z,13.10
2022-10-17T18:07:24.934Z,13.00
2022-10-17T18:13:03.111Z,13.00
2022-10-17T18:15:51.971Z,12.90
2022-10-17T18:18:45.295Z,12.90
2022-10-17T18:21:33.435Z,12.90
2022-10-17T18:24:20.942Z,12.80
2022-10-17T18:27:08.415Z,12.80
2022-10-17T18:29:56.345Z,12.80
2022-10-17T18:32:43.799Z,12.80
2022-10-17T18:35:32.276Z,12.80
2022-10-17T18:38:19.725Z,12.80
2022-10-17T18:41:15.571Z,12.70
2022-10-17T18:44:03.217Z,12.70
2022-10-17T18:46:51.244Z,12.60
2022-10-17T18:49:38.837Z,12.60
2022-10-17T18:52:26.335Z,12.60
2022-10-17T18:55:14.852Z,12.50
2022-10-17T18:58:02.289Z,12.50
2022-10-17T19:00:51.451Z,12.50
2022-10-17T19:03:39.006Z,12.40
2022-10-17T19:06:31.954Z,12.40
2022-10-17T19:09:19.753Z,12.30
2022-10-17T19:12:07.145Z,12.30
2022-10-17T19:14:56.301Z,12.30
2022-10-17T19:17:43.755Z,12.20
2022-10-17T19:20:31.286Z,12.20
2022-10-17T19:23:19.180Z,12.20
2022-10-17T19:26:11.619Z,12.10
2022-10-17T19:29:00.640Z,12.10
2022-10-17T19:31:49.472Z,12.10
2022-10-17T19:34:37.780Z,12.10
2022-10-17T19:37:25.395Z,12.00
2022-10-17T19:40:13.990Z,12.00
2022-10-17T19:43:01.435Z,12.00
2022-10-17T19:46:04.105Z,11.90
2022-10-17T19:48:52.770Z,11.90
2022-10-17T19:51:40.559Z,12.00
2022-10-17T19:54:28.094Z,11.90
2022-10-17T19:57:15.475Z,11.90
2022-10-17T20:00:03.923Z,11.90
2022-10-17T20:02:51.389Z,11.80
2022-10-17T20:05:39.226Z,11.70
2022-10-17T20:11:26.231Z,11.60
2022-10-17T20:14:13.730Z,11.50
2022-10-17T20:17:01.191Z,11.50
2022-10-17T20:19:48.894Z,11.40
2022-10-17T20:22:36.370Z,11.40
2022-10-17T20:25:24.036Z,11.30
2022-10-17T20:28:12.042Z,11.30
2022-10-17T20:30:59.589Z,11.30
2022-10-17T20:33:46.977Z,11.20
2022-10-17T20:36:37.249Z,11.20
2022-10-17T20:39:25.038Z,11.10
2022-10-17T20:42:12.445Z,11.10
2022-10-17T20:45:00.012Z,11.10
2022-10-17T20:47:52.462Z,10.90
2022-10-17T20:50:40.496Z,10.80
2022-10-17T20:53:43.068Z,10.80
2022-10-17T20:56:32.912Z,10.70
2022-10-17T20:59:20.834Z,10.70
2022-10-17T21:02:12.328Z,10.70
2022-10-17T21:04:59.760Z,10.60
2022-10-17T21:07:49.950Z,10.60
2022-10-17T21:10:37.379Z,10.50
2022-10-17T21:13:24.869Z,10.50
2022-10-17T21:16:18.845Z,10.50
2022-10-17T21:19:06.945Z,10.40
2022-10-17T21:21:54.490Z,10.30
2022-10-17T21:24:41.940Z,10.30
2022-10-17T21:27:29.525Z,10.20
2022-10-17T21:30:17.105Z,10.10
2022-10-17T21:33:04.539Z,10.10
2022-10-17T21:35:55.400Z,10.10
2022-10-17T21:38:45.314Z,10.00
2022-10-17T21:41:33.281Z,10.00
2022-10-17T21:44:25.122Z,10.00
2022-10-17T21:47:14.951Z,10.00
2022-10-17T21:50:02.361Z,10.10
2022-10-17T21:52:49.836Z,10.10
2022-10-17T21:55:37.981Z,10.20
2022-10-17T21:58:25.412Z,10.20
2022-10-17T22:01:21.038Z,10.20
2022-10-17T22:04:16.302Z,10.30
2022-10-17T22:07:03.765Z,10.10
2022-10-17T22:09:51.194Z,10.10
2022-10-17T22:12:38.654Z,10.10
2022-10-17T22:15:26.120Z,10.10
2022-10-17T22:18:13.940Z,10.20
2022-10-17T22:21:09.065Z,10.20
2022-10-17T22:24:02.853Z,10.10
2022-10-17T22:26:50.910Z,10.10
2022-10-17T22:29:39.831Z,10.20
2022-10-17T22:32:27.260Z,10.20
2022-10-17T22:35:14.850Z,10.20
2022-10-17T22:38:02.504Z,10.30
2022-10-17T22:40:49.941Z,10.30
2022-10-17T22:43:37.550Z,10.40
2022-10-17T22:46:25.950Z,10.50
2022-10-17T22:49:13.426Z,10.50
2022-10-17T22:52:00.881Z,10.60
2022-10-17T22:54:49.460Z,10.60
2022-10-17T22:57:36.956Z,10.60
2022-10-17T23:00:24.569Z,10.70
2022-10-17T23:03:12.104Z,10.70
2022-10-17T23:05:59.957Z,10.80
2022-10-17T23:08:48.324Z,10.80
2022-10-17T23:11:35.979Z,10.80
2022-10-17T23:14:23.480Z,10.90
2022-10-17T23:17:12.756Z,10.90
2022-10-17T23:20:00.272Z,10.90
2022-10-17T23:22:47.794Z,11.00
2022-10-17T23:25:35.599Z,11.00
2022-10-17T23:28:23.134Z,11.00
2022-10-17T23:31:20.581Z,11.00
2022-10-17T23:34:08.159Z,11.10
2022-10-17T23:36:55.841Z,11.10
2022-10-17T23:39:43.364Z,11.10
2022-10-17T23:42:30.884Z,11.10
2022-10-17T23:45:18.546Z,11.10
2022-10-17T23:48:06.324Z,11.10
2022-10-17T23:50:54.895Z,11.10
2022-10-17T23:53:42.414Z,11.10
2022-10-17T23:56:29.945Z,11.10
2022-10-17T23:59:17.489Z,11.20
